sensor_id;sensor_type;location;lat;lon;timestamp;temperature;humidity
11532;DHT22;5822;51.000;5.874;2023-01-23T00:00:39;5.30;99.90
11532;DHT22;5822;51.000;5.874;2023-01-23T00:03:05;5.30;99.90
11532;DHT22;5822;51.000;5.874;2023-01-23T00:05:31;5.20;99.90
11532;DHT22;5822;51.000;5.874;2023-01-23T00:07:56;5.20;99.90
11532;DHT22;5822;51.000;5.874;2023-01-23T00:10:22;5.10;99.90
11532;DHT22;5822;51.000;5.874;2023-01-23T00:12:48;5.20;99.90
11532;DHT22;5822;51.000;5.874;2023-01-23T00:15:14;5.20;99.90
11532;DHT22;5822;51.000;5.874;2023-01-23T00:17:40;5.20;99.90
11532;DHT22;5822;51.000;5.874;2023-01-23T00:20:08;5.30;99.90
11532;DHT22;5822;51.000;5.874;2023-01-23T00:22:33;5.30;99.90
11532;DHT22;5822;51.000;5.874;2023-01-23T00:24:59;5.30;99.90
11532;DHT22;5822;51.000;5.874;2023-01-23T00:27:25;5.30;99.90
11532;DHT22;5822;51.000;5.874;2023-01-23T00:29:52;5.40;99.90
11532;DHT22;5822;51.000;5.874;2023-01-23T00:32:17;5.40;99.90
11532;DHT22;5822;51.000;5.874;2023-01-23T00:34:44;5.40;99.90
11532;DHT22;5822;51.000;5.874;2023-01-23T00:37:10;5.30;99.90
11532;DHT22;5822;51.000;5.874;2023-01-23T00:39:36;5.20;99.90
11532;DHT22;5822;51.000;5.874;2023-01-23T00:42:01;5.20;99.90
11532;DHT22;5822;51.000;5.874;2023-01-23T00:44:27;5.20;99.90
11532;DHT22;5822;51.000;5.874;2023-01-23T00:46:53;5.30;99.90
11532;DHT22;5822;51.000;5.874;2023-01-23T00:49:18;5.20;99.90
11532;DHT22;5822;51.000;5.874;2023-01-23T00:51:44;5.20;99.90
11532;DHT22;5822;51.000;5.874;2023-01-23T00:54:10;5.10;99.90
11532;DHT22;5822;51.000;5.874;2023-01-23T00:56:36;5.10;99.90
11532;DHT22;5822;51.000;5.874;2023-01-23T00:59:02;5.20;99.90
11532;DHT22;5822;51.000;5.874;2023-01-23T01:01:28;5.20;99.90
11532;DHT22;5822;51.000;5.874;2023-01-23T01:03:56;5.20;99.90
11532;DHT22;5822;51.000;5.874;2023-01-23T01:06:22;5.20;99.90
11532;DHT22;5822;51.000;5.874;2023-01-23T01:08:48;5.30;99.90
11532;DHT22;5822;51.000;5.874;2023-01-23T01:11:13;5.20;99.90
11532;DHT22;5822;51.000;5.874;2023-01-23T01:13:39;5.20;99.90
11532;DHT22;5822;51.000;5.874;2023-01-23T01:16:05;5.20;99.90
11532;DHT22;5822;51.000;5.874;2023-01-23T01:18:31;5.20;99.90
11532;DHT22;5822;51.000;5.874;2023-01-23T01:20:57;5.20;99.90
11532;DHT22;5822;51.000;5.874;2023-01-23T01:23:23;5.20;99.90
11532;DHT22;5822;51.000;5.874;2023-01-23T01:25:49;5.30;99.90
11532;DHT22;5822;51.000;5.874;2023-01-23T01:28:14;5.20;99.90
11532;DHT22;5822;51.000;5.874;2023-01-23T01:30:40;5.20;99.90
11532;DHT22;5822;51.000;5.874;2023-01-23T01:33:06;5.20;99.90
11532;DHT22;5822;51.000;5.874;2023-01-23T01:35:32;5.20;99.90
11532;DHT22;5822;51.000;5.874;2023-01-23T01:37:58;5.10;99.90
11532;DHT22;5822;51.000;5.874;2023-01-23T01:40:26;5.20;99.90
11532;DHT22;5822;51.000;5.874;2023-01-23T01:43:00;5.20;99.90
11532;DHT22;5822;51.000;5.874;2023-01-23T01:51:34;5.20;99.90
11532;DHT22;5822;51.000;5.874;2023-01-23T01:54:24;5.30;99.90
11532;DHT22;5822;51.000;5.874;2023-01-23T02:02:34;5.40;99.90
11532;DHT22;5822;51.000;5.874;2023-01-23T02:05:14;5.40;99.90
11532;DHT22;5822;51.000;5.874;2023-01-23T02:08:02;5.40;99.90
11532;DHT22;5822;51.000;5.874;2023-01-23T02:10:30;5.40;99.90
11532;DHT22;5822;51.000;5.874;2023-01-23T02:13:26;5.30;99.90
11532;DHT22;5822;51.000;5.874;2023-01-23T02:16:00;5.30;99.90
11532;DHT22;5822;51.000;5.874;2023-01-23T02:18:27;5.40;99.90
11532;DHT22;5822;51.000;5.874;2023-01-23T02:20:55;5.40;99.90
11532;DHT22;5822;51.000;5.874;2023-01-23T02:26:05;5.40;99.90
11532;DHT22;5822;51.000;5.874;2023-01-23T02:28:38;5.40;99.90
11532;DHT22;5822;51.000;5.874;2023-01-23T02:31:05;5.30;99.90
11532;DHT22;5822;51.000;5.874;2023-01-23T02:36:00;5.40;99.90
11532;DHT22;5822;51.000;5.874;2023-01-23T02:38:30;5.40;99.90
11532;DHT22;5822;51.000;5.874;2023-01-23T02:40:59;5.40;99.90
11532;DHT22;5822;51.000;5.874;2023-01-23T02:43:28;5.50;99.90
11532;DHT22;5822;51.000;5.874;2023-01-23T02:46:03;5.40;99.90
11532;DHT22;5822;51.000;5.874;2023-01-23T02:48:29;5.50;99.90
11532;DHT22;5822;51.000;5.874;2023-01-23T02:50:55;5.50;99.90
11532;DHT22;5822;51.000;5.874;2023-01-23T02:53:21;5.50;99.90
11532;DHT22;5822;51.000;5.874;2023-01-23T02:55:49;5.50;99.90
11532;DHT22;5822;51.000;5.874;2023-01-23T02:58:15;5.50;99.90
11532;DHT22;5822;51.000;5.874;2023-01-23T03:00:59;5.50;99.90
11532;DHT22;5822;51.000;5.874;2023-01-23T03:03:24;5.50;99.90
11532;DHT22;5822;51.000;5.874;2023-01-23T03:05:50;5.50;99.90
11532;DHT22;5822;51.000;5.874;2023-01-23T03:08:16;5.50;99.90
11532;DHT22;5822;51.000;5.874;2023-01-23T03:10:42;5.50;99.90
11532;DHT22;5822;51.000;5.874;2023-01-23T03:13:07;5.40;99.90
11532;DHT22;5822;51.000;5.874;2023-01-23T03:15:36;5.50;99.90
11532;DHT22;5822;51.000;5.874;2023-01-23T03:18:08;5.40;99.90
11532;DHT22;5822;51.000;5.874;2023-01-23T03:20:38;5.50;99.90
11532;DHT22;5822;51.000;5.874;2023-01-23T03:23:03;5.50;99.90
11532;DHT22;5822;51.000;5.874;2023-01-23T03:25:29;5.50;99.90
11532;DHT22;5822;51.000;5.874;2023-01-23T03:27:55;5.60;99.90
11532;DHT22;5822;51.000;5.874;2023-01-23T03:30:20;5.60;99.90
11532;DHT22;5822;51.000;5.874;2023-01-23T03:32:46;5.60;99.90
11532;DHT22;5822;51.000;5.874;2023-01-23T03:35:14;5.60;99.90
11532;DHT22;5822;51.000;5.874;2023-01-23T03:37:42;5.60;99.90
11532;DHT22;5822;51.000;5.874;2023-01-23T03:40:16;5.60;99.90
11532;DHT22;5822;51.000;5.874;2023-01-23T03:43:00;5.60;99.90
11532;DHT22;5822;51.000;5.874;2023-01-23T03:45:26;5.50;99.90
11532;DHT22;5822;51.000;5.874;2023-01-23T03:47:52;5.60;99.90
11532;DHT22;5822;51.000;5.874;2023-01-23T03:50:17;5.60;99.90
11532;DHT22;5822;51.000;5.874;2023-01-23T03:52:43;5.50;99.90
11532;DHT22;5822;51.000;5.874;2023-01-23T03:55:09;5.60;99.90
11532;DHT22;5822;51.000;5.874;2023-01-23T03:57:34;5.60;99.90
11532;DHT22;5822;51.000;5.874;2023-01-23T04:00:00;5.70;99.90
11532;DHT22;5822;51.000;5.874;2023-01-23T04:02:26;5.60;99.90
11532;DHT22;5822;51.000;5.874;2023-01-23T04:04:52;5.60;99.90
11532;DHT22;5822;51.000;5.874;2023-01-23T04:07:17;5.60;99.90
11532;DHT22;5822;51.000;5.874;2023-01-23T04:09:43;5.60;99.90
11532;DHT22;5822;51.000;5.874;2023-01-23T04:12:09;5.70;99.90
11532;DHT22;5822;51.000;5.874;2023-01-23T04:14:35;5.70;99.90
11532;DHT22;5822;51.000;5.874;2023-01-23T04:17:05;5.70;99.90
11532;DHT22;5822;51.000;5.874;2023-01-23T04:19:31;5.60;99.90
11532;DHT22;5822;51.000;5.874;2023-01-23T04:21:57;5.70;99.90
11532;DHT22;5822;51.000;5.874;2023-01-23T04:24:22;5.70;99.90
11532;DHT22;5822;51.000;5.874;2023-01-23T04:26:48;5.70;99.90
11532;DHT22;5822;51.000;5.874;2023-01-23T04:29:13;5.70;99.90
11532;DHT22;5822;51.000;5.874;2023-01-23T04:31:39;5.70;99.90
11532;DHT22;5822;51.000;5.874;2023-01-23T04:34:05;5.70;99.90
11532;DHT22;5822;51.000;5.874;2023-01-23T04:36:31;5.70;99.90
11532;DHT22;5822;51.000;5.874;2023-01-23T04:38:57;5.80;99.90
11532;DHT22;5822;51.000;5.874;2023-01-23T04:41:26;5.80;99.90
11532;DHT22;5822;51.000;5.874;2023-01-23T04:43:51;5.80;99.90
11532;DHT22;5822;51.000;5.874;2023-01-23T04:46:17;5.80;99.90
11532;DHT22;5822;51.000;5.874;2023-01-23T04:48:43;5.80;99.90
11532;DHT22;5822;51.000;5.874;2023-01-23T04:51:08;5.80;99.90
11532;DHT22;5822;51.000;5.874;2023-01-23T04:53:34;5.80;99.90
11532;DHT22;5822;51.000;5.874;2023-01-23T04:56:00;5.80;99.90
11532;DHT22;5822;51.000;5.874;2023-01-23T04:58:26;5.70;99.90
11532;DHT22;5822;51.000;5.874;2023-01-23T05:00:51;5.70;99.90
11532;DHT22;5822;51.000;5.874;2023-01-23T05:03:18;5.70;99.90
11532;DHT22;5822;51.000;5.874;2023-01-23T05:05:45;5.70;99.90
11532;DHT22;5822;51.000;5.874;2023-01-23T05:08:12;5.70;99.90
11532;DHT22;5822;51.000;5.874;2023-01-23T05:10:38;5.70;99.90
11532;DHT22;5822;51.000;5.874;2023-01-23T05:13:04;5.70;99.90
11532;DHT22;5822;51.000;5.874;2023-01-23T05:15:30;5.70;99.90
11532;DHT22;5822;51.000;5.874;2023-01-23T05:17:56;5.80;99.90
11532;DHT22;5822;51.000;5.874;2023-01-23T05:20:21;5.80;99.90
11532;DHT22;5822;51.000;5.874;2023-01-23T05:22:50;5.80;99.90
11532;DHT22;5822;51.000;5.874;2023-01-23T05:25:21;5.70;99.90
11532;DHT22;5822;51.000;5.874;2023-01-23T05:27:47;5.70;99.90
11532;DHT22;5822;51.000;5.874;2023-01-23T05:30:12;5.70;99.90
11532;DHT22;5822;51.000;5.874;2023-01-23T05:32:38;5.70;99.90
11532;DHT22;5822;51.000;5.874;2023-01-23T05:35:04;5.60;99.90
11532;DHT22;5822;51.000;5.874;2023-01-23T05:37:29;5.60;99.90
11532;DHT22;5822;51.000;5.874;2023-01-23T05:39:55;5.70;99.90
11532;DHT22;5822;51.000;5.874;2023-01-23T05:42:21;5.70;99.90
11532;DHT22;5822;51.000;5.874;2023-01-23T05:44:46;5.70;99.90
11532;DHT22;5822;51.000;5.874;2023-01-23T05:47:12;5.70;99.90
11532;DHT22;5822;51.000;5.874;2023-01-23T05:49:38;5.80;99.90
11532;DHT22;5822;51.000;5.874;2023-01-23T05:52:04;5.70;99.90
11532;DHT22;5822;51.000;5.874;2023-01-23T05:54:30;5.70;99.90
11532;DHT22;5822;51.000;5.874;2023-01-23T05:56:55;5.60;99.90
11532;DHT22;5822;51.000;5.874;2023-01-23T05:59:21;5.60;99.90
11532;DHT22;5822;51.000;5.874;2023-01-23T06:01:47;5.70;99.90
11532;DHT22;5822;51.000;5.874;2023-01-23T06:04:12;5.70;99.90
11532;DHT22;5822;51.000;5.874;2023-01-23T06:06:43;5.70;99.90
11532;DHT22;5822;51.000;5.874;2023-01-23T06:09:09;5.70;99.90
11532;DHT22;5822;51.000;5.874;2023-01-23T06:11:35;5.50;99.90
11532;DHT22;5822;51.000;5.874;2023-01-23T06:14:00;5.60;99.90
11532;DHT22;5822;51.000;5.874;2023-01-23T06:16:26;5.60;99.90
11532;DHT22;5822;51.000;5.874;2023-01-23T06:18:52;5.70;99.90
11532;DHT22;5822;51.000;5.874;2023-01-23T06:21:17;5.70;99.90
11532;DHT22;5822;51.000;5.874;2023-01-23T06:23:46;5.70;99.90
11532;DHT22;5822;51.000;5.874;2023-01-23T06:26:12;5.60;99.90
11532;DHT22;5822;51.000;5.874;2023-01-23T06:28:38;5.60;99.90
11532;DHT22;5822;51.000;5.874;2023-01-23T06:31:04;5.70;99.90
11532;DHT22;5822;51.000;5.874;2023-01-23T06:33:30;5.70;99.90
11532;DHT22;5822;51.000;5.874;2023-01-23T06:36:01;5.60;99.90
11532;DHT22;5822;51.000;5.874;2023-01-23T06:38:28;5.70;99.90
11532;DHT22;5822;51.000;5.874;2023-01-23T06:40:54;5.70;99.90
11532;DHT22;5822;51.000;5.874;2023-01-23T06:43:20;5.70;99.90
11532;DHT22;5822;51.000;5.874;2023-01-23T06:45:46;5.70;99.90
11532;DHT22;5822;51.000;5.874;2023-01-23T06:48:12;5.70;99.90
11532;DHT22;5822;51.000;5.874;2023-01-23T06:50:38;5.70;99.90
11532;DHT22;5822;51.000;5.874;2023-01-23T06:53:04;5.60;99.90
11532;DHT22;5822;51.000;5.874;2023-01-23T06:55:31;5.60;99.90
11532;DHT22;5822;51.000;5.874;2023-01-23T06:57:57;5.70;99.90
11532;DHT22;5822;51.000;5.874;2023-01-23T07:00:23;5.70;99.90
11532;DHT22;5822;51.000;5.874;2023-01-23T07:02:48;5.70;99.90
11532;DHT22;5822;51.000;5.874;2023-01-23T07:05:14;5.70;99.90
11532;DHT22;5822;51.000;5.874;2023-01-23T07:07:40;5.70;99.90
11532;DHT22;5822;51.000;5.874;2023-01-23T07:10:06;5.70;99.90
11532;DHT22;5822;51.000;5.874;2023-01-23T07:12:32;5.70;99.90
11532;DHT22;5822;51.000;5.874;2023-01-23T07:14:58;5.70;99.90
11532;DHT22;5822;51.000;5.874;2023-01-23T07:17:23;5.70;99.90
11532;DHT22;5822;51.000;5.874;2023-01-23T07:19:49;5.60;99.90
11532;DHT22;5822;51.000;5.874;2023-01-23T07:22:16;5.70;99.90
11532;DHT22;5822;51.000;5.874;2023-01-23T07:24:43;5.70;99.90
11532;DHT22;5822;51.000;5.874;2023-01-23T07:27:08;5.70;99.90
11532;DHT22;5822;51.000;5.874;2023-01-23T07:29:34;5.70;99.90
11532;DHT22;5822;51.000;5.874;2023-01-23T07:31:59;5.80;99.90
11532;DHT22;5822;51.000;5.874;2023-01-23T07:34:25;5.70;99.90
11532;DHT22;5822;51.000;5.874;2023-01-23T07:36:51;5.70;99.90
11532;DHT22;5822;51.000;5.874;2023-01-23T07:39:17;5.60;99.90
11532;DHT22;5822;51.000;5.874;2023-01-23T07:41:42;5.50;99.90
11532;DHT22;5822;51.000;5.874;2023-01-23T07:44:13;5.50;99.90
11532;DHT22;5822;51.000;5.874;2023-01-23T07:46:42;5.50;99.90
11532;DHT22;5822;51.000;5.874;2023-01-23T07:49:08;5.50;99.90
11532;DHT22;5822;51.000;5.874;2023-01-23T07:51:34;5.70;99.90
11532;DHT22;5822;51.000;5.874;2023-01-23T07:53:59;5.70;99.90
11532;DHT22;5822;51.000;5.874;2023-01-23T07:56:25;5.70;99.90
11532;DHT22;5822;51.000;5.874;2023-01-23T07:58:51;5.70;99.90
11532;DHT22;5822;51.000;5.874;2023-01-23T08:01:17;5.70;99.90
11532;DHT22;5822;51.000;5.874;2023-01-23T08:03:46;5.70;99.90
11532;DHT22;5822;51.000;5.874;2023-01-23T08:06:12;5.80;99.90
11532;DHT22;5822;51.000;5.874;2023-01-23T08:08:38;5.70;99.90
11532;DHT22;5822;51.000;5.874;2023-01-23T08:11:05;5.70;99.90
11532;DHT22;5822;51.000;5.874;2023-01-23T08:13:32;5.70;99.90
11532;DHT22;5822;51.000;5.874;2023-01-23T08:15:58;5.70;99.90
11532;DHT22;5822;51.000;5.874;2023-01-23T08:18:25;5.70;99.90
11532;DHT22;5822;51.000;5.874;2023-01-23T08:20:55;5.70;99.90
11532;DHT22;5822;51.000;5.874;2023-01-23T08:23:29;5.70;99.90
11532;DHT22;5822;51.000;5.874;2023-01-23T08:25:58;5.80;99.90
11532;DHT22;5822;51.000;5.874;2023-01-23T08:28:24;5.80;99.90
11532;DHT22;5822;51.000;5.874;2023-01-23T08:30:50;5.80;99.90
11532;DHT22;5822;51.000;5.874;2023-01-23T08:33:17;5.80;99.90
11532;DHT22;5822;51.000;5.874;2023-01-23T08:35:53;5.80;99.90
11532;DHT22;5822;51.000;5.874;2023-01-23T08:38:19;5.80;99.90
11532;DHT22;5822;51.000;5.874;2023-01-23T08:40:47;5.80;99.90
11532;DHT22;5822;51.000;5.874;2023-01-23T08:43:13;5.80;99.90
11532;DHT22;5822;51.000;5.874;2023-01-23T08:45:48;5.90;99.90
11532;DHT22;5822;51.000;5.874;2023-01-23T08:48:14;5.90;99.90
11532;DHT22;5822;51.000;5.874;2023-01-23T08:50:39;5.90;99.90
11532;DHT22;5822;51.000;5.874;2023-01-23T08:53:05;5.90;99.90
11532;DHT22;5822;51.000;5.874;2023-01-23T08:55:31;5.90;99.90
11532;DHT22;5822;51.000;5.874;2023-01-23T08:57:57;5.90;99.90
11532;DHT22;5822;51.000;5.874;2023-01-23T09:00:24;5.80;99.90
11532;DHT22;5822;51.000;5.874;2023-01-23T09:02:49;5.90;99.90
11532;DHT22;5822;51.000;5.874;2023-01-23T09:05:16;5.90;99.90
11532;DHT22;5822;51.000;5.874;2023-01-23T09:07:42;5.80;99.90
11532;DHT22;5822;51.000;5.874;2023-01-23T09:10:09;5.90;99.90
11532;DHT22;5822;51.000;5.874;2023-01-23T09:12:34;5.90;99.90
11532;DHT22;5822;51.000;5.874;2023-01-23T09:15:00;5.90;99.90
11532;DHT22;5822;51.000;5.874;2023-01-23T09:17:26;5.90;99.90
11532;DHT22;5822;51.000;5.874;2023-01-23T09:19:52;5.80;99.90
11532;DHT22;5822;51.000;5.874;2023-01-23T09:22:18;5.80;99.90
11532;DHT22;5822;51.000;5.874;2023-01-23T09:24:44;5.80;99.90
11532;DHT22;5822;51.000;5.874;2023-01-23T09:27:10;5.90;99.90
11532;DHT22;5822;51.000;5.874;2023-01-23T09:29:35;6.00;99.90
11532;DHT22;5822;51.000;5.874;2023-01-23T09:32:02;6.00;99.90
11532;DHT22;5822;51.000;5.874;2023-01-23T09:34:28;6.00;99.90
11532;DHT22;5822;51.000;5.874;2023-01-23T09:36:54;6.00;99.90
11532;DHT22;5822;51.000;5.874;2023-01-23T09:39:20;6.00;99.90
11532;DHT22;5822;51.000;5.874;2023-01-23T09:41:47;6.00;99.90
11532;DHT22;5822;51.000;5.874;2023-01-23T09:44:37;6.00;99.90
11532;DHT22;5822;51.000;5.874;2023-01-23T09:47:14;6.00;99.90
11532;DHT22;5822;51.000;5.874;2023-01-23T09:49:48;6.00;99.90
11532;DHT22;5822;51.000;5.874;2023-01-23T09:52:20;6.00;99.90
11532;DHT22;5822;51.000;5.874;2023-01-23T09:55:34;6.00;99.90
11532;DHT22;5822;51.000;5.874;2023-01-23T09:57:43;6.00;99.90
11532;DHT22;5822;51.000;5.874;2023-01-23T10:02:44;6.10;99.90
11532;DHT22;5822;51.000;5.874;2023-01-23T10:05:17;6.10;99.90
11532;DHT22;5822;51.000;5.874;2023-01-23T10:13:10;6.20;99.90
11532;DHT22;5822;51.000;5.874;2023-01-23T10:18:28;6.20;99.90
11532;DHT22;5822;51.000;5.874;2023-01-23T10:21:09;6.20;99.90
11532;DHT22;5822;51.000;5.874;2023-01-23T10:26:16;6.20;99.90
11532;DHT22;5822;51.000;5.874;2023-01-23T10:28:43;6.30;99.90
11532;DHT22;5822;51.000;5.874;2023-01-23T10:39:40;6.40;99.90
11532;DHT22;5822;51.000;5.874;2023-01-23T10:42:11;6.40;99.90
11532;DHT22;5822;51.000;5.874;2023-01-23T10:44:37;6.50;99.90
11532;DHT22;5822;51.000;5.874;2023-01-23T10:47:15;6.40;99.90
11532;DHT22;5822;51.000;5.874;2023-01-23T10:49:45;6.40;99.90
11532;DHT22;5822;51.000;5.874;2023-01-23T10:54:58;6.50;99.90
11532;DHT22;5822;51.000;5.874;2023-01-23T10:57:27;6.60;99.90
11532;DHT22;5822;51.000;5.874;2023-01-23T11:00:04;6.60;99.90
11532;DHT22;5822;51.000;5.874;2023-01-23T11:02:34;6.70;99.90
11532;DHT22;5822;51.000;5.874;2023-01-23T11:05:03;6.70;99.90
11532;DHT22;5822;51.000;5.874;2023-01-23T11:07:53;6.70;99.90
11532;DHT22;5822;51.000;5.874;2023-01-23T11:10:21;6.70;99.90
11532;DHT22;5822;51.000;5.874;2023-01-23T11:12:52;6.70;99.90
11532;DHT22;5822;51.000;5.874;2023-01-23T11:15:28;6.70;99.90
11532;DHT22;5822;51.000;5.874;2023-01-23T11:17:57;6.70;99.90
11532;DHT22;5822;51.000;5.874;2023-01-23T11:20:36;6.80;99.90
11532;DHT22;5822;51.000;5.874;2023-01-23T11:23:14;6.80;99.90
11532;DHT22;5822;51.000;5.874;2023-01-23T11:25:48;6.80;99.90
11532;DHT22;5822;51.000;5.874;2023-01-23T11:30:55;6.80;99.90
11532;DHT22;5822;51.000;5.874;2023-01-23T11:36:01;6.90;99.90
11532;DHT22;5822;51.000;5.874;2023-01-23T11:38:42;6.80;99.90
11532;DHT22;5822;51.000;5.874;2023-01-23T11:41:12;6.90;99.90
11532;DHT22;5822;51.000;5.874;2023-01-23T11:43:39;6.90;99.90
11532;DHT22;5822;51.000;5.874;2023-01-23T11:46:21;7.00;99.90
11532;DHT22;5822;51.000;5.874;2023-01-23T11:51:31;7.00;99.90
11532;DHT22;5822;51.000;5.874;2023-01-23T11:54:02;7.00;99.90
11532;DHT22;5822;51.000;5.874;2023-01-23T11:59:15;7.00;99.90
11532;DHT22;5822;51.000;5.874;2023-01-23T12:04:38;7.00;99.90
11532;DHT22;5822;51.000;5.874;2023-01-23T12:15:57;7.10;99.90
11532;DHT22;5822;51.000;5.874;2023-01-23T12:21:13;7.00;99.90
11532;DHT22;5822;51.000;5.874;2023-01-23T12:26:18;7.00;99.90
11532;DHT22;5822;51.000;5.874;2023-01-23T12:31:52;7.00;99.90
11532;DHT22;5822;51.000;5.874;2023-01-23T12:37:14;7.00;99.90
11532;DHT22;5822;51.000;5.874;2023-01-23T12:43:08;7.00;99.90
11532;DHT22;5822;51.000;5.874;2023-01-23T12:45:36;7.00;99.90
11532;DHT22;5822;51.000;5.874;2023-01-23T12:48:15;7.00;99.90
11532;DHT22;5822;51.000;5.874;2023-01-23T12:50:48;7.00;99.90
11532;DHT22;5822;51.000;5.874;2023-01-23T12:53:19;7.00;99.90
11532;DHT22;5822;51.000;5.874;2023-01-23T12:56:14;7.00;99.90
11532;DHT22;5822;51.000;5.874;2023-01-23T12:58:59;6.90;99.90
11532;DHT22;5822;51.000;5.874;2023-01-23T13:01:59;7.00;99.90
11532;DHT22;5822;51.000;5.874;2023-01-23T13:07:47;7.00;99.90
11532;DHT22;5822;51.000;5.874;2023-01-23T13:13:23;7.00;99.90
11532;DHT22;5822;51.000;5.874;2023-01-23T13:16:16;7.00;99.90
11532;DHT22;5822;51.000;5.874;2023-01-23T13:21:37;7.00;99.90
11532;DHT22;5822;51.000;5.874;2023-01-23T13:24:28;7.00;99.90
11532;DHT22;5822;51.000;5.874;2023-01-23T13:27:39;7.00;99.90
11532;DHT22;5822;51.000;5.874;2023-01-23T13:35:55;7.00;99.90
11532;DHT22;5822;51.000;5.874;2023-01-23T13:52:16;7.00;99.90
11532;DHT22;5822;51.000;5.874;2023-01-23T13:55:03;7.00;99.90
11532;DHT22;5822;51.000;5.874;2023-01-23T13:57:56;7.00;99.90
11532;DHT22;5822;51.000;5.874;2023-01-23T14:00:23;7.00;99.90
11532;DHT22;5822;51.000;5.874;2023-01-23T14:06:10;7.00;99.90
11532;DHT22;5822;51.000;5.874;2023-01-23T14:08:53;6.90;99.90
11532;DHT22;5822;51.000;5.874;2023-01-23T14:11:20;6.90;99.90
11532;DHT22;5822;51.000;5.874;2023-01-23T14:13:50;6.90;99.90
11532;DHT22;5822;51.000;5.874;2023-01-23T14:16:40;6.90;99.90
11532;DHT22;5822;51.000;5.874;2023-01-23T14:21:54;6.90;99.90
11532;DHT22;5822;51.000;5.874;2023-01-23T14:24:25;7.00;99.90
11532;DHT22;5822;51.000;5.874;2023-01-23T14:26:59;7.00;99.90
11532;DHT22;5822;51.000;5.874;2023-01-23T14:29:26;6.90;99.90
11532;DHT22;5822;51.000;5.874;2023-01-23T14:31:52;6.90;99.90
11532;DHT22;5822;51.000;5.874;2023-01-23T14:34:22;7.00;99.90
11532;DHT22;5822;51.000;5.874;2023-01-23T14:36:51;7.00;99.90
11532;DHT22;5822;51.000;5.874;2023-01-23T14:39:22;7.00;99.90
11532;DHT22;5822;51.000;5.874;2023-01-23T14:41:52;7.00;99.90
11532;DHT22;5822;51.000;5.874;2023-01-23T14:44:22;7.00;99.90
11532;DHT22;5822;51.000;5.874;2023-01-23T14:46:53;7.00;99.90
11532;DHT22;5822;51.000;5.874;2023-01-23T14:49:39;7.00;99.90
11532;DHT22;5822;51.000;5.874;2023-01-23T14:52:06;7.00;99.90
11532;DHT22;5822;51.000;5.874;2023-01-23T14:54:33;7.00;99.90
11532;DHT22;5822;51.000;5.874;2023-01-23T14:57:01;7.00;99.90
11532;DHT22;5822;51.000;5.874;2023-01-23T14:59:35;7.00;99.90
11532;DHT22;5822;51.000;5.874;2023-01-23T15:08:30;6.90;99.90
11532;DHT22;5822;51.000;5.874;2023-01-23T15:13:12;6.90;99.90
11532;DHT22;5822;51.000;5.874;2023-01-23T15:15:45;6.80;99.90
11532;DHT22;5822;51.000;5.874;2023-01-23T15:18:34;6.80;99.90
11532;DHT22;5822;51.000;5.874;2023-01-23T15:21:02;6.90;99.90
11532;DHT22;5822;51.000;5.874;2023-01-23T15:23:36;6.90;99.90
11532;DHT22;5822;51.000;5.874;2023-01-23T15:26:09;6.80;99.90
11532;DHT22;5822;51.000;5.874;2023-01-23T15:39:20;6.90;99.90
11532;DHT22;5822;51.000;5.874;2023-01-23T15:41:54;6.90;99.90
11532;DHT22;5822;51.000;5.874;2023-01-23T15:44:21;6.80;99.90
11532;DHT22;5822;51.000;5.874;2023-01-23T15:46:47;6.80;99.90
11532;DHT22;5822;51.000;5.874;2023-01-23T15:49:13;6.70;99.90
11532;DHT22;5822;51.000;5.874;2023-01-23T15:51:39;6.80;99.90
11532;DHT22;5822;51.000;5.874;2023-01-23T15:54:05;6.80;99.90
11532;DHT22;5822;51.000;5.874;2023-01-23T15:56:32;6.80;99.90
11532;DHT22;5822;51.000;5.874;2023-01-23T15:58:58;6.80;99.90
11532;DHT22;5822;51.000;5.874;2023-01-23T16:01:27;6.80;99.90
11532;DHT22;5822;51.000;5.874;2023-01-23T16:03:52;6.80;99.90
11532;DHT22;5822;51.000;5.874;2023-01-23T16:06:20;6.70;99.90
11532;DHT22;5822;51.000;5.874;2023-01-23T16:08:50;6.60;99.90
11532;DHT22;5822;51.000;5.874;2023-01-23T16:11:17;6.60;99.90
11532;DHT22;5822;51.000;5.874;2023-01-23T16:13:43;6.60;99.90
11532;DHT22;5822;51.000;5.874;2023-01-23T16:16:17;6.70;99.90
11532;DHT22;5822;51.000;5.874;2023-01-23T16:18:43;6.70;99.90
11532;DHT22;5822;51.000;5.874;2023-01-23T16:21:16;6.80;99.90
11532;DHT22;5822;51.000;5.874;2023-01-23T16:23:43;6.70;99.90
11532;DHT22;5822;51.000;5.874;2023-01-23T16:26:19;6.70;99.90
11532;DHT22;5822;51.000;5.874;2023-01-23T16:28:45;6.70;99.90
11532;DHT22;5822;51.000;5.874;2023-01-23T16:31:15;6.70;99.90
11532;DHT22;5822;51.000;5.874;2023-01-23T16:33:42;6.80;99.90
11532;DHT22;5822;51.000;5.874;2023-01-23T16:36:18;6.70;99.90
11532;DHT22;5822;51.000;5.874;2023-01-23T16:38:50;6.80;99.90
11532;DHT22;5822;51.000;5.874;2023-01-23T16:41:17;6.70;99.90
11532;DHT22;5822;51.000;5.874;2023-01-23T16:43:43;6.70;99.90
11532;DHT22;5822;51.000;5.874;2023-01-23T16:46:09;6.70;99.90
11532;DHT22;5822;51.000;5.874;2023-01-23T16:48:36;6.60;99.90
11532;DHT22;5822;51.000;5.874;2023-01-23T16:51:17;6.70;99.90
11532;DHT22;5822;51.000;5.874;2023-01-23T16:53:49;6.70;99.90
11532;DHT22;5822;51.000;5.874;2023-01-23T16:56:25;6.70;99.90
11532;DHT22;5822;51.000;5.874;2023-01-23T16:58:54;6.70;99.90
11532;DHT22;5822;51.000;5.874;2023-01-23T17:01:21;6.70;99.90
11532;DHT22;5822;51.000;5.874;2023-01-23T17:03:56;6.70;99.90
11532;DHT22;5822;51.000;5.874;2023-01-23T17:06:22;6.70;99.90
11532;DHT22;5822;51.000;5.874;2023-01-23T17:08:47;6.70;99.90
11532;DHT22;5822;51.000;5.874;2023-01-23T17:11:25;6.60;99.90
11532;DHT22;5822;51.000;5.874;2023-01-23T17:13:57;6.60;99.90
11532;DHT22;5822;51.000;5.874;2023-01-23T17:16:23;6.70;99.90
11532;DHT22;5822;51.000;5.874;2023-01-23T17:18:49;6.70;99.90
11532;DHT22;5822;51.000;5.874;2023-01-23T17:21:18;6.60;99.90
11532;DHT22;5822;51.000;5.874;2023-01-23T17:23:45;6.50;99.90
11532;DHT22;5822;51.000;5.874;2023-01-23T17:26:18;6.60;99.90
11532;DHT22;5822;51.000;5.874;2023-01-23T17:28:45;6.60;99.90
11532;DHT22;5822;51.000;5.874;2023-01-23T17:31:23;6.60;99.90
11532;DHT22;5822;51.000;5.874;2023-01-23T17:33:50;6.50;99.90
11532;DHT22;5822;51.000;5.874;2023-01-23T17:36:17;6.50;99.90
11532;DHT22;5822;51.000;5.874;2023-01-23T17:38:43;6.50;99.90
11532;DHT22;5822;51.000;5.874;2023-01-23T17:41:13;6.60;99.90
11532;DHT22;5822;51.000;5.874;2023-01-23T17:43:39;6.60;99.90
11532;DHT22;5822;51.000;5.874;2023-01-23T17:46:08;6.60;99.90
11532;DHT22;5822;51.000;5.874;2023-01-23T17:48:38;6.60;99.90
11532;DHT22;5822;51.000;5.874;2023-01-23T17:51:14;6.60;99.90
11532;DHT22;5822;51.000;5.874;2023-01-23T17:53:41;6.60;99.90
11532;DHT22;5822;51.000;5.874;2023-01-23T17:56:06;6.60;99.90
11532;DHT22;5822;51.000;5.874;2023-01-23T17:58:32;6.60;99.90
11532;DHT22;5822;51.000;5.874;2023-01-23T18:00:57;6.50;99.90
11532;DHT22;5822;51.000;5.874;2023-01-23T18:03:24;6.50;99.90
11532;DHT22;5822;51.000;5.874;2023-01-23T18:05:50;6.60;99.90
11532;DHT22;5822;51.000;5.874;2023-01-23T18:08:18;6.50;99.90
11532;DHT22;5822;51.000;5.874;2023-01-23T18:10:46;6.50;99.90
11532;DHT22;5822;51.000;5.874;2023-01-23T18:13:34;6.60;99.90
11532;DHT22;5822;51.000;5.874;2023-01-23T18:16:13;6.50;99.90
11532;DHT22;5822;51.000;5.874;2023-01-23T18:18:40;6.60;99.90
11532;DHT22;5822;51.000;5.874;2023-01-23T18:21:13;6.60;99.90
11532;DHT22;5822;51.000;5.874;2023-01-23T18:23:39;6.60;99.90
11532;DHT22;5822;51.000;5.874;2023-01-23T18:26:16;6.60;99.90